Time;durP1;ratioP1;P1;durP2;ratioP2;P2;SDS_P1;SDS_P2;PMS_P1;PMS_P2;Temp;Humidity;BMP_temperature;BMP_pressure;BME280_temperature;BME280_humidity;BME280_pressure;Samples;Min_cycle;Max_cycle;Signal;HPM_P1;HPM_P2
2022/11/02 00:01:41;;;;;;;;;;;11.60;99.90;;;;;;5047916;28;20438;-82
2022/11/02 00:04:06;;;;;;;;;;;11.60;99.90;;;;;;5037200;28;19917;-82
2022/11/02 00:06:32;;;;;;;;;;;11.70;99.90;;;;;;5048875;28;20000;-82
2022/11/02 00:08:57;;;;;;;;;;;11.70;99.90;;;;;;5048748;28;19916;-84
2022/11/02 00:11:23;;;;;;;;;;;11.60;99.90;;;;;;5030283;28;20346;-84
2022/11/02 00:13:48;;;;;;;;;;;11.70;99.90;;;;;;5027859;28;19920;-84
2022/11/02 00:16:15;;;;;;;;;;;11.70;99.90;;;;;;5030470;28;20071;-83
2022/11/02 00:18:42;;;;;;;;;;;11.90;99.90;;;;;;5030806;28;19923;-83
2022/11/02 00:21:07;;;;;;;;;;;12.20;99.90;;;;;;5048355;28;19928;-83
2022/11/02 00:23:33;;;;;;;;;;;12.40;99.90;;;;;;5030300;28;19992;-83
2022/11/02 00:25:59;;;;;;;;;;;12.60;99.90;;;;;;5048510;28;19919;-82
2022/11/02 00:28:27;;;;;;;;;;;12.60;99.90;;;;;;5029980;28;19924;-83
2022/11/02 00:30:52;;;;;;;;;;;12.50;99.90;;;;;;5048186;28;20196;-82
2022/11/02 00:33:18;;;;;;;;;;;12.60;99.90;;;;;;5030103;28;19919;-83
2022/11/02 00:35:44;;;;;;;;;;;12.70;99.90;;;;;;5042782;28;20701;-84
2022/11/02 00:38:10;;;;;;;;;;;12.70;99.90;;;;;;5048586;28;19912;-85
2022/11/02 00:40:35;;;;;;;;;;;12.70;99.90;;;;;;5030641;28;19984;-84
2022/11/02 00:43:01;;;;;;;;;;;12.50;99.90;;;;;;5047076;28;19913;-81
2022/11/02 00:45:26;;;;;;;;;;;12.30;99.90;;;;;;5050664;28;19994;-82
2022/11/02 00:47:52;;;;;;;;;;;12.40;99.90;;;;;;5030485;28;19917;-81
2022/11/02 00:50:18;;;;;;;;;;;12.50;99.90;;;;;;5048917;28;19917;-81
2022/11/02 00:52:43;;;;;;;;;;;12.60;99.90;;;;;;5047548;28;19912;-81
2022/11/02 00:55:10;;;;;;;;;;;12.70;99.90;;;;;;5048508;28;19917;-81
2022/11/02 00:57:39;;;;;;;;;;;12.60;99.90;;;;;;5048078;28;19939;-82
2022/11/02 01:00:06;;;;;;;;;;;12.40;99.90;;;;;;5047065;28;19980;-82
2022/11/02 01:02:32;;;;;;;;;;;12.30;99.90;;;;;;5029448;28;19956;-82
2022/11/02 01:05:07;;;;;;;;;;;12.30;99.90;;;;;;5105376;27;20472;-84
2022/11/02 01:07:33;;;;;;;;;;;12.20;99.90;;;;;;5087925;28;19938;-84
2022/11/02 01:09:58;;;;;;;;;;;12.20;99.90;;;;;;5085583;28;19990;-85
2022/11/02 01:12:24;;;;;;;;;;;12.20;99.90;;;;;;5085532;28;19927;-84
2022/11/02 01:14:50;;;;;;;;;;;12.20;99.90;;;;;;5083543;28;19913;-85
2022/11/02 01:17:15;;;;;;;;;;;12.20;99.90;;;;;;5086023;28;19978;-85
2022/11/02 01:19:41;;;;;;;;;;;12.30;99.90;;;;;;5088205;28;19924;-84
2022/11/02 01:22:06;;;;;;;;;;;12.40;99.90;;;;;;5087727;28;20007;-84
2022/11/02 01:24:32;;;;;;;;;;;12.40;99.90;;;;;;5085256;28;19930;-85
2022/11/02 01:26:57;;;;;;;;;;;12.30;99.90;;;;;;5081179;28;19963;-84
2022/11/02 01:29:23;;;;;;;;;;;12.30;99.90;;;;;;5084891;28;19942;-85
2022/11/02 01:31:49;;;;;;;;;;;12.20;99.90;;;;;;5088774;28;20662;-83
2022/11/02 01:34:14;;;;;;;;;;;12.00;99.90;;;;;;5082003;28;20371;-84
2022/11/02 01:36:40;;;;;;;;;;;12.00;99.90;;;;;;5083433;28;19913;-83
2022/11/02 01:39:06;;;;;;;;;;;11.90;99.90;;;;;;5089969;28;19919;-84
2022/11/02 01:41:31;;;;;;;;;;;11.80;99.90;;;;;;5084420;28;19916;-84
2022/11/02 01:43:57;;;;;;;;;;;11.80;99.90;;;;;;5089669;28;19931;-84
2022/11/02 01:46:43;;;;;;;;;;;11.70;99.90;;;;;;5084830;28;19912;-84
2022/11/02 01:49:13;;;;;;;;;;;11.70;99.90;;;;;;5118991;27;19947;-87
2022/11/02 01:51:45;;;;;;;;;;;11.60;99.90;;;;;;5086611;28;19916;-83
2022/11/02 01:54:15;;;;;;;;;;;11.50;99.90;;;;;;5088307;28;20455;-83
2022/11/02 01:56:41;;;;;;;;;;;11.40;99.90;;;;;;5092848;28;19917;-84
2022/11/02 01:59:11;;;;;;;;;;;11.40;99.90;;;;;;5085412;28;19920;-86
2022/11/02 02:01:37;;;;;;;;;;;11.40;99.90;;;;;;5080952;28;19917;-86
2022/11/02 02:04:03;;;;;;;;;;;11.30;99.90;;;;;;5073974;28;20387;-85
2022/11/02 02:06:29;;;;;;;;;;;11.30;99.90;;;;;;5086256;28;20007;-85
2022/11/02 02:08:56;;;;;;;;;;;11.30;99.90;;;;;;5084864;28;20027;-83
2022/11/02 02:11:26;;;;;;;;;;;11.30;99.90;;;;;;5117299;27;19912;-83
2022/11/02 02:14:00;;;;;;;;;;;11.30;99.90;;;;;;5081562;28;19916;-83
2022/11/02 02:16:38;;;;;;;;;;;11.30;99.90;;;;;;5103712;28;19918;-85
2022/11/02 02:19:09;;;;;;;;;;;11.20;99.90;;;;;;5071163;28;19923;-85
2022/11/02 02:21:37;;;;;;;;;;;11.20;99.90;;;;;;5068730;28;19950;-82
2022/11/02 02:24:21;;;;;;;;;;;11.20;99.90;;;;;;5067609;28;19921;-82
2022/11/02 02:26:57;;;;;;;;;;;11.10;99.90;;;;;;5073295;28;19960;-82
2022/11/02 02:29:27;;;;;;;;;;;11.10;99.90;;;;;;5071806;28;19921;-82
2022/11/02 02:32:25;;;;;;;;;;;11.20;99.90;;;;;;5062430;28;20452;-83
2022/11/02 02:34:56;;;;;;;;;;;11.10;99.90;;;;;;5066720;28;20396;-81
2022/11/02 02:37:30;;;;;;;;;;;11.00;99.90;;;;;;5073106;28;19917;-81
2022/11/02 02:40:28;;;;;;;;;;;11.00;99.90;;;;;;5103510;27;20133;-81
2022/11/02 02:42:56;;;;;;;;;;;10.90;99.90;;;;;;5046670;28;20431;-82
2022/11/02 02:45:21;;;;;;;;;;;10.80;99.90;;;;;;5071649;28;20031;-81
2022/11/02 02:47:55;;;;;;;;;;;10.90;99.90;;;;;;5072669;28;20075;-81
2022/11/02 02:50:24;;;;;;;;;;;10.80;99.90;;;;;;5063037;28;19948;-81
2022/11/02 02:52:51;;;;;;;;;;;10.90;99.90;;;;;;5066351;28;19942;-80
2022/11/02 02:55:21;;;;;;;;;;;10.90;99.90;;;;;;5099557;28;19948;-80
2022/11/02 02:57:48;;;;;;;;;;;10.90;99.90;;;;;;5069476;28;20711;-80
2022/11/02 03:00:15;;;;;;;;;;;10.90;99.90;;;;;;5070144;28;19920;-80
2022/11/02 03:02:41;;;;;;;;;;;10.80;99.90;;;;;;5070847;28;19916;-82
2022/11/02 03:05:23;;;;;;;;;;;10.80;99.90;;;;;;5070916;28;19969;-82
2022/11/02 03:07:49;;;;;;;;;;;10.80;99.90;;;;;;5064371;28;20024;-84
2022/11/02 03:10:40;;;;;;;;;;;10.90;99.90;;;;;;5075778;28;20034;-83
2022/11/02 03:13:06;;;;;;;;;;;10.90;99.90;;;;;;5063890;28;19916;-82
2022/11/02 03:15:42;;;;;;;;;;;11.00;99.90;;;;;;5066858;28;19919;-83
2022/11/02 03:18:15;;;;;;;;;;;11.00;99.90;;;;;;5071829;28;20005;-82
2022/11/02 03:20:44;;;;;;;;;;;10.90;99.90;;;;;;5068001;28;19916;-82
2022/11/02 03:23:30;;;;;;;;;;;11.00;99.90;;;;;;5069040;28;19951;-81
2022/11/02 03:25:59;;;;;;;;;;;11.00;99.90;;;;;;5067645;28;20391;-82
2022/11/02 03:28:28;;;;;;;;;;;11.00;99.90;;;;;;5068346;28;19916;-83
2022/11/02 03:30:58;;;;;;;;;;;10.90;99.90;;;;;;5069167;28;19916;-83
2022/11/02 03:33:23;;;;;;;;;;;11.00;99.90;;;;;;5105379;27;20017;-83
2022/11/02 03:36:07;;;;;;;;;;;10.90;99.90;;;;;;5062799;28;19916;-84
2022/11/02 03:38:36;;;;;;;;;;;10.90;99.90;;;;;;5073149;28;19917;-82
2022/11/02 03:41:02;;;;;;;;;;;10.90;99.90;;;;;;5069635;28;19916;-82
2022/11/02 03:43:29;;;;;;;;;;;10.90;99.90;;;;;;5069924;28;19921;-83
2022/11/02 03:45:57;;;;;;;;;;;10.90;99.90;;;;;;5074025;28;19970;-82
2022/11/02 03:48:25;;;;;;;;;;;10.90;99.90;;;;;;5068871;28;19916;-83
2022/11/02 03:50:52;;;;;;;;;;;10.80;99.90;;;;;;5068314;28;19915;-83
2022/11/02 03:53:21;;;;;;;;;;;10.80;99.90;;;;;;5065348;28;19922;-83
2022/11/02 03:55:51;;;;;;;;;;;10.80;99.90;;;;;;5066756;28;19917;-83
2022/11/02 03:58:17;;;;;;;;;;;10.60;99.90;;;;;;5069303;28;20454;-83
2022/11/02 04:00:47;;;;;;;;;;;10.70;99.90;;;;;;5068730;28;19946;-84
2022/11/02 04:03:13;;;;;;;;;;;10.70;99.90;;;;;;5071569;28;19931;-83
2022/11/02 04:05:38;;;;;;;;;;;10.60;99.90;;;;;;5071607;28;20519;-84
2022/11/02 04:08:20;;;;;;;;;;;10.50;99.90;;;;;;5059869;28;20000;-83
2022/11/02 04:16:14;;;;;;;;;;;10.80;99.90;;;;;;5062182;28;19919;-86
2022/11/02 04:21:25;;;;;;;;;;;10.70;99.90;;;;;;5063531;28;19921;-85
2022/11/02 04:26:35;;;;;;;;;;;10.60;99.90;;;;;;5068274;28;19923;-83
2022/11/02 04:29:00;;;;;;;;;;;10.60;99.90;;;;;;5068009;28;19917;-84
2022/11/02 04:31:26;;;;;;;;;;;10.60;99.90;;;;;;5066505;28;19916;-85
2022/11/02 04:33:51;;;;;;;;;;;10.60;99.90;;;;;;5075819;28;19927;-84
2022/11/02 04:36:17;;;;;;;;;;;10.70;99.90;;;;;;5066111;28;19924;-82
2022/11/02 04:38:43;;;;;;;;;;;10.80;99.90;;;;;;5066105;28;19956;-83
2022/11/02 04:43:57;;;;;;;;;;;10.70;99.90;;;;;;5064159;28;19927;-84
2022/11/02 04:46:23;;;;;;;;;;;10.70;99.90;;;;;;5071597;28;20011;-83
2022/11/02 04:48:49;;;;;;;;;;;10.70;99.90;;;;;;5067720;28;20015;-83
2022/11/02 04:51:14;;;;;;;;;;;10.70;99.90;;;;;;5064410;28;20019;-82
2022/11/02 04:53:40;;;;;;;;;;;10.70;99.90;;;;;;5065210;28;19931;-81
2022/11/02 04:56:06;;;;;;;;;;;10.60;99.90;;;;;;5067648;28;20524;-84
2022/11/02 04:58:31;;;;;;;;;;;10.50;99.90;;;;;;5100278;28;19927;-84
2022/11/02 05:00:57;;;;;;;;;;;10.50;99.90;;;;;;5070164;28;19920;-83
2022/11/02 05:03:22;;;;;;;;;;;10.50;99.90;;;;;;5067749;28;19970;-83
2022/11/02 05:05:52;;;;;;;;;;;10.50;99.90;;;;;;5067654;28;20049;-82
2022/11/02 05:08:18;;;;;;;;;;;10.50;99.90;;;;;;5068913;28;19950;-82
2022/11/02 05:10:43;;;;;;;;;;;10.50;99.90;;;;;;5068628;28;19916;-82
2022/11/02 05:13:09;;;;;;;;;;;10.40;99.90;;;;;;5071562;28;19916;-82
2022/11/02 05:15:37;;;;;;;;;;;10.40;99.90;;;;;;5065167;28;20057;-84
2022/11/02 05:18:03;;;;;;;;;;;10.40;99.90;;;;;;5069035;28;19916;-85
2022/11/02 05:20:28;;;;;;;;;;;10.40;99.90;;;;;;5067730;28;19917;-85
2022/11/02 05:22:54;;;;;;;;;;;10.30;99.90;;;;;;5067485;28;20451;-84
2022/11/02 05:25:19;;;;;;;;;;;10.30;99.90;;;;;;5073786;28;20291;-84
2022/11/02 05:27:45;;;;;;;;;;;10.40;99.90;;;;;;5065589;28;20339;-82
2022/11/02 05:30:11;;;;;;;;;;;10.30;99.90;;;;;;5067096;28;19923;-84
2022/11/02 05:32:36;;;;;;;;;;;10.20;99.90;;;;;;5092769;28;19916;-84
2022/11/02 05:35:02;;;;;;;;;;;10.20;99.90;;;;;;5059499;28;20777;-82
2022/11/02 05:37:27;;;;;;;;;;;10.30;99.90;;;;;;5070790;28;20735;-84
2022/11/02 05:39:53;;;;;;;;;;;10.30;99.90;;;;;;5103223;28;19916;-83
2022/11/02 05:42:18;;;;;;;;;;;10.30;99.90;;;;;;5068242;28;19916;-85
2022/11/02 05:44:44;;;;;;;;;;;10.20;99.90;;;;;;5068315;28;19920;-89
2022/11/02 05:47:09;;;;;;;;;;;10.20;99.90;;;;;;5068687;28;19929;-90
2022/11/02 05:49:35;;;;;;;;;;;10.10;99.90;;;;;;5068373;28;19920;-89
2022/11/02 05:52:00;;;;;;;;;;;10.10;99.90;;;;;;5105496;28;20400;-89
2022/11/02 05:54:26;;;;;;;;;;;10.10;99.90;;;;;;5074034;28;19924;-91
2022/11/02 05:56:51;;;;;;;;;;;10.20;99.90;;;;;;5071189;28;19967;-88
2022/11/02 05:59:17;;;;;;;;;;;10.20;99.90;;;;;;5080461;28;20302;-89
2022/11/02 06:01:42;;;;;;;;;;;10.30;99.90;;;;;;5056613;28;19920;-90
2022/11/02 06:04:08;;;;;;;;;;;10.10;99.90;;;;;;5076563;28;19924;-90
2022/11/02 06:06:33;;;;;;;;;;;10.10;99.90;;;;;;5080118;28;19919;-88
2022/11/02 06:08:59;;;;;;;;;;;10.10;99.90;;;;;;5071556;28;20463;-90
2022/11/02 06:11:24;;;;;;;;;;;10.10;99.90;;;;;;5063815;28;19916;-90
2022/11/02 06:13:50;;;;;;;;;;;10.20;99.90;;;;;;5073836;28;19991;-86
2022/11/02 06:16:16;;;;;;;;;;;10.20;99.90;;;;;;5064481;28;19916;-87
2022/11/02 06:18:42;;;;;;;;;;;10.00;99.90;;;;;;5084090;28;19916;-89
2022/11/02 06:21:07;;;;;;;;;;;10.00;99.90;;;;;;5074441;28;20586;-88
2022/11/02 06:23:33;;;;;;;;;;;9.90;99.90;;;;;;5089940;28;19921;-87
2022/11/02 06:25:59;;;;;;;;;;;10.00;99.90;;;;;;5061277;28;20451;-91
2022/11/02 06:28:25;;;;;;;;;;;9.90;99.90;;;;;;5077503;28;19977;-90
2022/11/02 06:30:51;;;;;;;;;;;9.90;99.90;;;;;;5063756;28;19958;-89
2022/11/02 06:33:17;;;;;;;;;;;9.90;99.90;;;;;;5065287;28;19912;-85
2022/11/02 06:35:43;;;;;;;;;;;9.90;99.90;;;;;;5067652;28;20728;-83
2022/11/02 06:38:09;;;;;;;;;;;10.00;99.90;;;;;;5079091;28;19923;-81
2022/11/02 06:40:34;;;;;;;;;;;10.00;99.90;;;;;;5070204;28;19912;-82
2022/11/02 06:43:00;;;;;;;;;;;10.00;99.90;;;;;;5056963;28;19923;-83
2022/11/02 06:45:26;;;;;;;;;;;10.10;99.90;;;;;;5064204;28;20720;-83
2022/11/02 06:47:51;;;;;;;;;;;10.10;99.90;;;;;;5066953;28;20332;-80
2022/11/02 06:50:17;;;;;;;;;;;10.10;99.90;;;;;;5073089;28;19928;-82
2022/11/02 06:52:43;;;;;;;;;;;10.00;99.90;;;;;;5070045;28;19959;-81
2022/11/02 06:55:09;;;;;;;;;;;10.00;99.90;;;;;;5069422;28;20019;-82
2022/11/02 06:57:35;;;;;;;;;;;10.10;99.90;;;;;;5070041;28;19916;-81
2022/11/02 07:00:03;;;;;;;;;;;10.10;99.90;;;;;;5069226;28;19931;-80
2022/11/02 07:02:29;;;;;;;;;;;10.10;99.90;;;;;;5079595;28;20295;-82
2022/11/02 07:04:55;;;;;;;;;;;10.20;99.90;;;;;;5071138;28;19940;-82
2022/11/02 07:07:21;;;;;;;;;;;10.30;99.90;;;;;;5073052;28;20055;-81
2022/11/02 07:09:47;;;;;;;;;;;10.30;99.90;;;;;;5072003;28;19999;-83
2022/11/02 07:12:12;;;;;;;;;;;10.40;99.90;;;;;;5069373;28;20024;-82
2022/11/02 07:14:37;;;;;;;;;;;10.40;99.90;;;;;;5068439;28;19916;-80
2022/11/02 07:17:03;;;;;;;;;;;10.40;99.90;;;;;;5070252;28;19927;-81
2022/11/02 07:19:29;;;;;;;;;;;10.50;99.90;;;;;;5064600;28;19916;-82
2022/11/02 07:21:54;;;;;;;;;;;10.50;99.90;;;;;;5062124;28;19924;-82
2022/11/02 07:24:20;;;;;;;;;;;10.60;99.90;;;;;;5100667;27;19947;-81
2022/11/02 07:26:49;;;;;;;;;;;10.60;99.90;;;;;;5072610;28;20473;-79
2022/11/02 07:29:15;;;;;;;;;;;10.60;99.90;;;;;;5066986;28;19917;-80
2022/11/02 07:31:41;;;;;;;;;;;10.60;99.90;;;;;;5065681;28;19944;-80
2022/11/02 07:34:06;;;;;;;;;;;10.70;99.90;;;;;;5097457;27;19982;-80
2022/11/02 07:36:32;;;;;;;;;;;10.70;99.90;;;;;;5066808;28;19913;-79
2022/11/02 07:38:57;;;;;;;;;;;10.90;99.90;;;;;;5068383;28;20392;-80
2022/11/02 07:41:22;;;;;;;;;;;11.00;99.90;;;;;;5067798;28;19936;-79
2022/11/02 07:43:48;;;;;;;;;;;11.00;99.90;;;;;;5070902;28;20837;-79
2022/11/02 07:46:14;;;;;;;;;;;11.00;99.90;;;;;;5070114;28;20395;-79
2022/11/02 07:48:39;;;;;;;;;;;11.00;99.90;;;;;;5074101;28;19919;-79
2022/11/02 07:51:06;;;;;;;;;;;11.00;99.90;;;;;;5082298;28;20384;-79
2022/11/02 07:53:32;;;;;;;;;;;11.00;99.90;;;;;;5068236;28;20463;-79
2022/11/02 07:56:01;;;;;;;;;;;11.00;99.90;;;;;;5075208;28;20021;-80
2022/11/02 07:58:26;;;;;;;;;;;11.10;99.90;;;;;;5066100;28;20475;-79
2022/11/02 08:00:53;;;;;;;;;;;11.10;99.90;;;;;;5064045;28;19983;-80
2022/11/02 08:03:18;;;;;;;;;;;11.20;99.90;;;;;;5049061;28;19972;-79
2022/11/02 08:05:44;;;;;;;;;;;11.20;99.90;;;;;;5049360;28;19970;-79
2022/11/02 08:08:12;;;;;;;;;;;11.40;99.90;;;;;;5050531;28;20292;-79
2022/11/02 08:10:37;;;;;;;;;;;11.60;99.90;;;;;;5049458;28;20035;-78
2022/11/02 08:13:03;;;;;;;;;;;11.70;99.90;;;;;;5050554;28;20050;-79
2022/11/02 08:15:28;;;;;;;;;;;11.60;99.90;;;;;;5049555;28;20493;-79
2022/11/02 08:18:08;;;;;;;;;;;11.80;99.90;;;;;;5080297;28;19924;-79
2022/11/02 08:20:34;;;;;;;;;;;11.90;99.90;;;;;;5059018;28;19962;-79
2022/11/02 08:23:00;;;;;;;;;;;11.90;99.90;;;;;;5045554;28;20370;-78
2022/11/02 08:25:25;;;;;;;;;;;11.90;99.90;;;;;;5049597;28;19983;-78
2022/11/02 08:27:54;;;;;;;;;;;12.00;99.90;;;;;;5047531;28;19919;-78
2022/11/02 08:30:20;;;;;;;;;;;12.20;99.90;;;;;;5065468;28;19919;-78
2022/11/02 08:32:45;;;;;;;;;;;12.30;99.90;;;;;;5057285;28;19913;-78
2022/11/02 08:35:11;;;;;;;;;;;12.30;99.90;;;;;;5082412;28;19920;-79
2022/11/02 08:37:36;;;;;;;;;;;12.30;99.90;;;;;;5050678;28;19916;-78
2022/11/02 08:40:02;;;;;;;;;;;12.40;99.90;;;;;;5052333;28;19913;-79
2022/11/02 08:42:27;;;;;;;;;;;12.30;99.90;;;;;;5052047;28;20473;-79
2022/11/02 08:44:53;;;;;;;;;;;12.30;99.90;;;;;;5063200;28;19928;-79
2022/11/02 08:47:19;;;;;;;;;;;12.50;99.90;;;;;;5066602;28;19917;-79
2022/11/02 08:49:45;;;;;;;;;;;12.80;99.90;;;;;;5064477;28;20532;-79
2022/11/02 08:52:11;;;;;;;;;;;12.90;99.90;;;;;;5067635;28;19916;-79
2022/11/02 08:54:36;;;;;;;;;;;12.80;99.90;;;;;;5068320;28;19980;-78
2022/11/02 08:57:02;;;;;;;;;;;13.00;99.90;;;;;;5067470;28;19912;-78
2022/11/02 08:59:27;;;;;;;;;;;13.00;99.90;;;;;;5067506;28;19916;-78
2022/11/02 09:01:53;;;;;;;;;;;12.80;99.90;;;;;;5063642;28;20467;-78
2022/11/02 09:04:18;;;;;;;;;;;12.70;99.90;;;;;;5067559;28;20410;-78
2022/11/02 09:06:44;;;;;;;;;;;12.60;99.90;;;;;;5066644;28;19952;-78
2022/11/02 09:09:10;;;;;;;;;;;12.60;99.90;;;;;;5067621;28;20184;-78
2022/11/02 09:11:35;;;;;;;;;;;12.90;99.90;;;;;;5064669;28;19958;-78
2022/11/02 09:14:01;;;;;;;;;;;13.10;99.90;;;;;;5051002;28;19928;-78
2022/11/02 09:16:26;;;;;;;;;;;13.40;99.90;;;;;;5059717;28;19917;-77
2022/11/02 09:18:52;;;;;;;;;;;13.30;99.90;;;;;;5067843;28;20003;-78
2022/11/02 09:21:17;;;;;;;;;;;13.50;99.90;;;;;;5069698;28;20007;-78
2022/11/02 09:23:43;;;;;;;;;;;13.90;99.90;;;;;;5067576;28;19924;-78
2022/11/02 09:26:09;;;;;;;;;;;14.10;99.90;;;;;;5067813;28;20007;-78
2022/11/02 09:28:34;;;;;;;;;;;14.80;99.90;;;;;;5102817;28;19916;-79
2022/11/02 09:31:00;;;;;;;;;;;15.20;99.90;;;;;;5070819;28;21185;-78
2022/11/02 09:33:25;;;;;;;;;;;15.30;99.90;;;;;;5071168;28;20519;-78
2022/11/02 09:35:51;;;;;;;;;;;15.40;99.90;;;;;;5066134;28;19916;-78
2022/11/02 09:38:17;;;;;;;;;;;15.40;99.90;;;;;;5071146;28;19951;-78
2022/11/02 09:40:52;;;;;;;;;;;15.60;99.90;;;;;;5070781;28;19923;-78
2022/11/02 09:43:29;;;;;;;;;;;15.70;99.90;;;;;;5098232;28;19924;-78
2022/11/02 09:45:58;;;;;;;;;;;15.60;99.90;;;;;;5065790;28;19916;-78
2022/11/02 09:48:33;;;;;;;;;;;15.50;99.90;;;;;;5070483;28;19927;-78
2022/11/02 09:51:04;;;;;;;;;;;15.60;99.90;;;;;;5079992;28;20322;-78
2022/11/02 09:53:48;;;;;;;;;;;15.70;99.90;;;;;;5098261;27;19955;-79
2022/11/02 09:56:16;;;;;;;;;;;15.60;99.90;;;;;;5093839;28;20724;-79
2022/11/02 09:58:42;;;;;;;;;;;15.60;99.90;;;;;;5070293;28;19962;-79
2022/11/02 10:01:19;;;;;;;;;;;15.40;99.90;;;;;;5091331;27;19917;-79
2022/11/02 10:03:51;;;;;;;;;;;15.30;99.90;;;;;;5063190;28;20419;-79
2022/11/02 10:06:19;;;;;;;;;;;15.40;99.90;;;;;;5070135;28;19966;-80
2022/11/02 10:09:00;;;;;;;;;;;15.20;99.90;;;;;;5081636;28;19931;-80
2022/11/02 10:11:30;;;;;;;;;;;15.20;99.90;;;;;;5067249;28;20356;-79
2022/11/02 10:13:56;;;;;;;;;;;15.00;99.90;;;;;;5064396;28;19917;-80
2022/11/02 10:16:34;;;;;;;;;;;14.80;99.90;;;;;;5064615;28;20032;-80
2022/11/02 10:19:01;;;;;;;;;;;15.00;99.90;;;;;;5098393;27;19916;-80
2022/11/02 10:21:31;;;;;;;;;;;15.30;99.90;;;;;;5068204;28;19923;-80
2022/11/02 10:23:58;;;;;;;;;;;15.50;99.90;;;;;;5067064;28;19952;-80
2022/11/02 10:26:32;;;;;;;;;;;15.30;99.90;;;;;;5071361;28;19912;-82
2022/11/02 10:29:03;;;;;;;;;;;15.50;99.90;;;;;;5071471;28;19923;-80
2022/11/02 10:31:32;;;;;;;;;;;15.60;99.90;;;;;;5066293;28;19913;-80
2022/11/02 10:34:18;;;;;;;;;;;15.60;99.90;;;;;;5067637;28;19924;-79
2022/11/02 10:36:59;;;;;;;;;;;15.60;99.90;;;;;;5063069;28;20437;-78
2022/11/02 10:39:32;;;;;;;;;;;15.50;99.90;;;;;;5071732;28;20019;-78
2022/11/02 10:42:04;;;;;;;;;;;15.60;99.90;;;;;;5075078;28;20238;-78
2022/11/02 10:44:48;;;;;;;;;;;15.50;99.90;;;;;;5067069;28;19920;-78
2022/11/02 10:47:15;;;;;;;;;;;15.60;99.90;;;;;;5065542;28;19917;-78
2022/11/02 10:49:41;;;;;;;;;;;15.60;99.90;;;;;;5069581;28;19970;-78
2022/11/02 10:52:10;;;;;;;;;;;15.50;99.90;;;;;;5064425;28;20642;-77
2022/11/02 10:54:36;;;;;;;;;;;15.60;99.90;;;;;;5062555;28;19923;-78
2022/11/02 10:57:08;;;;;;;;;;;15.50;99.90;;;;;;5092885;27;19920;-78
2022/11/02 10:59:33;;;;;;;;;;;15.50;99.90;;;;;;5068747;28;19916;-78
2022/11/02 11:02:00;;;;;;;;;;;15.40;99.90;;;;;;5064120;28;20378;-78
2022/11/02 11:04:27;;;;;;;;;;;15.30;99.90;;;;;;5068890;28;19931;-78
2022/11/02 11:06:53;;;;;;;;;;;15.40;99.90;;;;;;5060322;28;19942;-78
2022/11/02 11:09:25;;;;;;;;;;;15.20;99.90;;;;;;5069667;28;19951;-78
2022/11/02 11:12:01;;;;;;;;;;;15.30;99.90;;;;;;5066235;28;20468;-78
2022/11/02 11:14:28;;;;;;;;;;;15.20;99.90;;;;;;5097200;27;19916;-77
2022/11/02 11:16:56;;;;;;;;;;;15.20;99.90;;;;;;5052574;28;19927;-78
2022/11/02 11:19:23;;;;;;;;;;;15.50;99.90;;;;;;5068109;28;19933;-78
2022/11/02 11:21:49;;;;;;;;;;;15.60;99.90;;;;;;5060664;28;20548;-77
2022/11/02 11:24:31;;;;;;;;;;;15.60;99.90;;;;;;5065463;28;19915;-77
2022/11/02 11:27:11;;;;;;;;;;;15.60;99.90;;;;;;5069339;28;19917;-78
2022/11/02 11:29:38;;;;;;;;;;;15.50;99.90;;;;;;5065973;28;19916;-79
2022/11/02 11:32:11;;;;;;;;;;;15.60;99.90;;;;;;5063541;28;19955;-78
2022/11/02 11:34:37;;;;;;;;;;;15.60;99.90;;;;;;5065899;28;19984;-78
2022/11/02 11:37:10;;;;;;;;;;;15.60;99.90;;;;;;5070914;28;20436;-78
2022/11/02 11:39:37;;;;;;;;;;;15.60;99.90;;;;;;5065504;28;19916;-78
2022/11/02 11:42:03;;;;;;;;;;;15.70;99.90;;;;;;5067006;28;20724;-78
2022/11/02 11:44:29;;;;;;;;;;;15.80;99.90;;;;;;5065534;28;20010;-77
2022/11/02 11:46:58;;;;;;;;;;;15.90;99.90;;;;;;5068336;28;19916;-79
2022/11/02 11:49:25;;;;;;;;;;;15.90;99.90;;;;;;5068382;28;19912;-79
2022/11/02 11:51:53;;;;;;;;;;;15.80;99.90;;;;;;5100032;27;19916;-77
2022/11/02 11:54:23;;;;;;;;;;;15.70;99.90;;;;;;5060977;28;19920;-78
2022/11/02 11:56:50;;;;;;;;;;;15.90;99.90;;;;;;5066629;28;19917;-81
2022/11/02 11:59:20;;;;;;;;;;;16.10;99.90;;;;;;5075357;28;19912;-80
2022/11/02 12:01:46;;;;;;;;;;;16.10;99.90;;;;;;5061754;28;19921;-79
2022/11/02 12:04:11;;;;;;;;;;;15.90;99.90;;;;;;5067758;28;19970;-79
2022/11/02 12:06:43;;;;;;;;;;;16.00;99.90;;;;;;5066809;28;19912;-79
2022/11/02 12:09:19;;;;;;;;;;;15.90;99.90;;;;;;5068902;28;20471;-80
2022/11/02 12:11:56;;;;;;;;;;;16.00;99.90;;;;;;5062712;28;20455;-81
2022/11/02 12:14:42;;;;;;;;;;;16.00;99.90;;;;;;5065531;28;19927;-80
2022/11/02 12:17:10;;;;;;;;;;;16.10;99.90;;;;;;5058027;28;19935;-78
2022/11/02 12:19:41;;;;;;;;;;;16.10;99.90;;;;;;5068665;28;19983;-78
2022/11/02 12:22:07;;;;;;;;;;;16.20;99.90;;;;;;5095347;27;19959;-78
2022/11/02 12:24:53;;;;;;;;;;;16.30;99.90;;;;;;5068795;28;19956;-77
2022/11/02 12:27:38;;;;;;;;;;;16.20;99.90;;;;;;5066916;28;20387;-79
2022/11/02 12:30:03;;;;;;;;;;;16.00;99.90;;;;;;5085202;28;19924;-78
2022/11/02 12:32:29;;;;;;;;;;;16.00;99.90;;;;;;5052412;28;19912;-79
2022/11/02 12:34:57;;;;;;;;;;;15.90;99.90;;;;;;5054365;28;20460;-79
2022/11/02 12:37:40;;;;;;;;;;;15.80;99.90;;;;;;5052561;28;19912;-79
2022/11/02 12:40:09;;;;;;;;;;;15.70;99.90;;;;;;5053771;28;19916;-78
2022/11/02 12:42:39;;;;;;;;;;;15.90;99.90;;;;;;5080130;28;20387;-78
2022/11/02 12:45:24;;;;;;;;;;;16.00;99.90;;;;;;5052339;28;20714;-78
2022/11/02 12:47:50;;;;;;;;;;;16.10;99.90;;;;;;5052977;28;19920;-79
2022/11/02 12:50:18;;;;;;;;;;;16.00;99.90;;;;;;5052069;28;19917;-79
2022/11/02 12:52:59;;;;;;;;;;;16.00;99.90;;;;;;5052846;28;19936;-78
2022/11/02 12:55:27;;;;;;;;;;;16.00;99.90;;;;;;5054001;28;19916;-79
2022/11/02 12:57:57;;;;;;;;;;;16.00;99.90;;;;;;5050421;28;19913;-79
2022/11/02 13:00:22;;;;;;;;;;;15.90;99.90;;;;;;5051319;28;20009;-79
2022/11/02 13:03:00;;;;;;;;;;;16.00;99.90;;;;;;5050678;28;19921;-80
2022/11/02 13:05:28;;;;;;;;;;;16.00;99.90;;;;;;5064754;28;19920;-78
2022/11/02 13:08:01;;;;;;;;;;;16.00;99.90;;;;;;5052141;28;20007;-80
2022/11/02 13:10:32;;;;;;;;;;;15.90;99.90;;;;;;5051557;28;19943;-79
2022/11/02 13:13:00;;;;;;;;;;;15.70;99.90;;;;;;5053399;28;19925;-79
2022/11/02 13:15:26;;;;;;;;;;;15.80;99.90;;;;;;5051679;28;19924;-79
2022/11/02 13:17:53;;;;;;;;;;;15.80;99.90;;;;;;5050817;28;19921;-78
2022/11/02 13:20:19;;;;;;;;;;;15.80;99.90;;;;;;5057617;28;19912;-78
2022/11/02 13:22:47;;;;;;;;;;;15.80;99.90;;;;;;5057890;28;19942;-78
2022/11/02 13:25:18;;;;;;;;;;;15.70;99.90;;;;;;5058094;28;20096;-79
2022/11/02 13:27:56;;;;;;;;;;;15.70;99.90;;;;;;5061423;28;19920;-79
2022/11/02 13:30:21;;;;;;;;;;;15.70;99.90;;;;;;5066527;28;19912;-78
2022/11/02 13:32:50;;;;;;;;;;;15.60;99.90;;;;;;5058458;28;20721;-78
2022/11/02 13:35:27;;;;;;;;;;;15.70;99.90;;;;;;5063379;28;20722;-78
2022/11/02 13:37:55;;;;;;;;;;;15.60;99.90;;;;;;5062424;28;19920;-79
2022/11/02 13:40:24;;;;;;;;;;;15.70;99.90;;;;;;5064201;28;19956;-78
2022/11/02 13:43:13;;;;;;;;;;;15.60;99.90;;;;;;5066585;28;19916;-78
2022/11/02 13:45:41;;;;;;;;;;;15.60;99.90;;;;;;5055668;28;19938;-77
2022/11/02 13:48:18;;;;;;;;;;;15.50;99.90;;;;;;5059936;28;19947;-79
2022/11/02 13:50:55;;;;;;;;;;;15.50;99.90;;;;;;5052936;28;19920;-78
2022/11/02 13:53:28;;;;;;;;;;;15.50;99.90;;;;;;5064774;28;20004;-79
2022/11/02 13:56:04;;;;;;;;;;;15.40;99.90;;;;;;5067323;28;19937;-78
2022/11/02 13:58:32;;;;;;;;;;;15.50;99.90;;;;;;5065431;28;19939;-79
2022/11/02 14:00:58;;;;;;;;;;;15.40;99.90;;;;;;5067271;28;19934;-79
2022/11/02 14:03:27;;;;;;;;;;;15.50;99.90;;;;;;5066783;28;19931;-79
2022/11/02 14:05:54;;;;;;;;;;;15.40;99.90;;;;;;5067555;28;20368;-79
2022/11/02 14:08:24;;;;;;;;;;;15.40;99.10;;;;;;5062257;28;20287;-78
2022/11/02 14:11:08;;;;;;;;;;;15.40;98.50;;;;;;5049469;28;20008;-79
2022/11/02 14:14:05;;;;;;;;;;;15.40;98.00;;;;;;5056348;28;19925;-79
2022/11/02 14:16:49;;;;;;;;;;;15.30;98.00;;;;;;5067427;28;19916;-78
2022/11/02 14:19:14;;;;;;;;;;;15.30;98.40;;;;;;5062077;28;19940;-79
2022/11/02 14:22:00;;;;;;;;;;;15.40;99.10;;;;;;5066102;28;20426;-78
2022/11/02 14:24:35;;;;;;;;;;;15.40;98.70;;;;;;5058090;28;19990;-78
2022/11/02 14:27:23;;;;;;;;;;;15.40;98.70;;;;;;5050422;28;19924;-78
2022/11/02 14:29:49;;;;;;;;;;;15.30;98.70;;;;;;5054815;28;19912;-78
2022/11/02 14:32:20;;;;;;;;;;;15.20;98.70;;;;;;5055055;28;19927;-77
2022/11/02 14:34:48;;;;;;;;;;;15.20;99.30;;;;;;5055998;28;19941;-79
2022/11/02 14:37:32;;;;;;;;;;;15.20;98.40;;;;;;5055219;28;19920;-78
2022/11/02 14:39:58;;;;;;;;;;;15.30;98.80;;;;;;5056677;28;20013;-79